createdAt,value
2022-08-18T00:03:00.799Z,13.40
2022-08-18T00:07:26.784Z,13.95
2022-08-18T00:11:42.299Z,13.18
2022-08-18T00:15:55.193Z,12.80
2022-08-18T00:20:13.029Z,12.82
2022-08-18T00:24:25.917Z,11.30
2022-08-18T00:28:37.581Z,12.68
2022-08-18T00:32:56.030Z,12.35
2022-08-18T00:37:07.810Z,11.50
2022-08-18T00:41:20.600Z,11.32
2022-08-18T00:45:36.685Z,12.32
2022-08-18T00:49:52.894Z,12.50
2022-08-18T00:54:07.654Z,11.48
2022-08-18T00:58:27.403Z,11.70
2022-08-18T01:02:44.580Z,11.32
2022-08-18T01:07:05.415Z,10.90
2022-08-18T01:11:18.110Z,10.15
2022-08-18T01:15:30.616Z,9.90
2022-08-18T01:20:00.930Z,8.90
2022-08-18T01:24:14.749Z,9.00
2022-08-18T01:28:33.345Z,8.57
2022-08-18T01:32:48.233Z,7.15
2022-08-18T01:37:01.231Z,8.27
2022-08-18T01:41:26.002Z,6.90
2022-08-18T01:45:42.436Z,6.60
2022-08-18T01:49:54.277Z,6.93
2022-08-18T01:54:06.015Z,6.47
2022-08-18T01:58:17.692Z,7.03
2022-08-18T02:02:32.895Z,7.32
2022-08-18T02:06:47.873Z,6.53
2022-08-18T02:10:59.612Z,6.03
2022-08-18T02:15:11.870Z,6.88
2022-08-18T02:19:23.906Z,6.50
2022-08-18T02:23:36.145Z,6.72
2022-08-18T02:27:47.999Z,7.05
2022-08-18T02:31:59.704Z,7.28
2022-08-18T02:36:12.285Z,6.55
2022-08-18T02:40:24.072Z,6.75
2022-08-18T02:44:36.285Z,6.45
2022-08-18T02:48:49.541Z,6.90
2022-08-18T02:53:02.544Z,7.13
2022-08-18T02:57:14.753Z,5.97
2022-08-18T03:01:29.658Z,7.03
2022-08-18T03:05:41.411Z,5.93
2022-08-18T03:09:53.078Z,5.75
2022-08-18T03:14:05.881Z,5.93
2022-08-18T03:18:20.649Z,4.90
2022-08-18T03:22:32.725Z,5.82
2022-08-18T03:26:45.323Z,5.22
2022-08-18T03:30:56.997Z,5.70
2022-08-18T03:35:09.374Z,6.28
2022-08-18T03:39:23.643Z,6.13
2022-08-18T03:43:51.349Z,6.72
2022-08-18T03:48:03.768Z,5.78
2022-08-18T03:52:15.471Z,5.63
2022-08-18T03:56:34.487Z,5.55
2022-08-18T04:00:46.252Z,5.70
2022-08-18T04:04:58.008Z,5.75
2022-08-18T04:09:14.033Z,5.63
2022-08-18T04:13:25.665Z,6.07
2022-08-18T04:18:06.148Z,6.18
2022-08-18T04:22:09.441Z,5.35
2022-08-18T04:26:28.804Z,5.97
2022-08-18T04:30:40.486Z,5.88
2022-08-18T04:34:52.433Z,5.53
2022-08-18T04:39:07.741Z,6.13
2022-08-18T04:43:19.393Z,6.85
2022-08-18T04:47:41.944Z,5.80
2022-08-18T04:52:44.406Z,7.07
2022-08-18T05:09:01.110Z,7.85
2022-08-18T05:13:36.194Z,7.30
2022-08-18T05:18:14.637Z,8.88
2022-08-18T05:23:34.804Z,8.30
2022-08-18T05:28:41.246Z,7.53
2022-08-18T05:33:15.458Z,6.88
2022-08-18T05:37:36.125Z,6.88
2022-08-18T05:42:41.033Z,5.53
2022-08-18T05:47:49.245Z,5.82
2022-08-18T05:52:30.705Z,5.93
2022-08-18T06:13:09.555Z,5.65
2022-08-18T06:18:40.820Z,5.78
2022-08-18T06:34:33.396Z,4.60
2022-08-18T06:39:22.873Z,4.95
2022-08-18T06:44:05.640Z,4.38
2022-08-18T06:48:40.390Z,4.10
2022-08-18T06:52:57.531Z,3.58
2022-08-18T06:57:23.524Z,3.50
2022-08-18T07:01:35.151Z,3.38
2022-08-18T07:06:07.021Z,3.35
2022-08-18T07:10:18.515Z,3.80
2022-08-18T07:14:30.205Z,3.33
2022-08-18T07:18:41.871Z,3.42
2022-08-18T07:22:55.081Z,3.53
2022-08-18T07:27:11.391Z,3.20
2022-08-18T07:31:38.255Z,3.00
2022-08-18T07:35:58.773Z,2.80
2022-08-18T07:40:32.514Z,2.67
2022-08-18T07:45:03.902Z,2.58
2022-08-18T07:49:22.322Z,2.58
2022-08-18T07:53:37.432Z,2.70
2022-08-18T07:57:48.991Z,2.42
2022-08-18T08:02:33.541Z,2.80
2022-08-18T08:07:20.864Z,2.88
2022-08-18T08:11:40.318Z,3.08
2022-08-18T08:16:04.953Z,2.53
2022-08-18T08:20:33.255Z,2.63
2022-08-18T08:25:01.295Z,2.75
2022-08-18T08:29:13.879Z,2.88
2022-08-18T08:33:37.305Z,2.42
2022-08-18T08:37:54.724Z,2.92
2022-08-18T08:42:29.808Z,2.25
2022-08-18T08:46:55.434Z,2.72
2022-08-18T08:51:17.581Z,2.65
2022-08-18T08:55:34.019Z,2.47
2022-08-18T08:59:48.790Z,2.50
2022-08-18T09:04:17.431Z,2.80
2022-08-18T09:08:42.748Z,2.47
2022-08-18T09:13:33.298Z,2.10
2022-08-18T09:17:59.514Z,2.22
2022-08-18T09:22:21.381Z,2.30
2022-08-18T09:26:52.644Z,2.55
2022-08-18T09:31:08.566Z,2.10
2022-08-18T09:35:36.191Z,2.22
2022-08-18T09:50:04.641Z,2.17
2022-08-18T09:54:49.808Z,2.30
2022-08-18T09:59:02.934Z,2.28
2022-08-18T10:08:01.479Z,2.17
2022-08-18T10:12:23.449Z,2.05
2022-08-18T10:17:21.281Z,2.60
2022-08-18T10:21:56.080Z,2.10
2022-08-18T10:26:30.321Z,2.20
2022-08-18T10:35:34.048Z,2.35
2022-08-18T10:39:50.396Z,2.30
2022-08-18T10:44:10.601Z,2.47
2022-08-18T10:48:34.746Z,2.20
2022-08-18T10:53:24.590Z,2.10
2022-08-18T10:57:48.108Z,1.98
2022-08-18T11:02:20.461Z,2.70
2022-08-18T11:06:43.296Z,2.13
2022-08-18T11:11:27.725Z,2.47
2022-08-18T11:22:03.492Z,2.00
2022-08-18T11:26:39.030Z,2.17
2022-08-18T11:31:27.477Z,2.03
2022-08-18T11:35:57.942Z,2.15
2022-08-18T11:41:02.145Z,2.83
2022-08-18T11:45:26.296Z,2.70
2022-08-18T12:31:19.765Z,2.60
2022-08-18T12:35:41.997Z,2.92
2022-08-18T12:39:55.680Z,2.53
2022-08-18T12:48:41.238Z,2.60
2022-08-18T12:52:54.081Z,2.60
2022-08-18T12:57:18.237Z,2.65
2022-08-18T13:01:44.818Z,2.80
2022-08-18T13:05:56.488Z,2.90
2022-08-18T13:10:35.778Z,2.45
2022-08-18T13:14:44.169Z,2.78
2022-08-18T13:18:56.267Z,2.88
2022-08-18T13:23:08.612Z,2.63
2022-08-18T13:27:23.363Z,2.50
2022-08-18T13:31:35.315Z,2.67
2022-08-18T13:35:52.123Z,2.72
2022-08-18T13:40:07.209Z,2.65
2022-08-18T13:44:22.452Z,2.75
2022-08-18T13:48:39.575Z,2.90
2022-08-18T13:52:54.090Z,2.95
2022-08-18T13:57:06.756Z,3.00
2022-08-18T14:05:52.870Z,2.92
2022-08-18T14:10:08.141Z,2.80
2022-08-18T14:14:25.023Z,3.00
2022-08-18T14:18:37.306Z,2.67
2022-08-18T14:23:11.445Z,2.65
2022-08-18T14:27:35.261Z,3.28
2022-08-18T14:31:48.942Z,2.72
2022-08-18T14:36:09.739Z,2.40
2022-08-18T14:40:21.711Z,2.47
2022-08-18T14:44:33.418Z,2.30
2022-08-18T14:48:47.685Z,2.42
2022-08-18T14:52:59.426Z,2.58
2022-08-18T14:57:12.166Z,2.50
2022-08-18T15:01:24.711Z,2.45
2022-08-18T15:05:38.462Z,2.33
2022-08-18T15:10:15.240Z,2.33
2022-08-18T15:14:33.492Z,2.22
2022-08-18T15:18:46.811Z,2.30
2022-08-18T15:23:22.830Z,2.47
2022-08-18T15:27:42.642Z,2.00
2022-08-18T15:31:57.981Z,2.28
2022-08-18T15:36:16.194Z,2.47
2022-08-18T15:40:30.654Z,2.35
2022-08-18T15:44:47.364Z,2.00
2022-08-18T15:49:09.568Z,2.42
2022-08-18T15:53:29.811Z,2.15
2022-08-18T15:57:41.866Z,2.00
2022-08-18T16:01:53.583Z,2.22
2022-08-18T16:06:05.589Z,2.72
2022-08-18T16:10:20.460Z,1.80
2022-08-18T16:14:32.101Z,2.40
2022-08-18T16:18:46.186Z,2.55
2022-08-18T16:22:58.554Z,2.30
2022-08-18T16:27:12.086Z,2.38
2022-08-18T16:31:28.380Z,2.20
2022-08-18T16:35:40.088Z,1.77
2022-08-18T16:39:57.010Z,2.58
2022-08-18T16:44:08.651Z,2.42
2022-08-18T16:48:21.800Z,2.03
2022-08-18T16:52:35.349Z,2.10
2022-08-18T16:56:46.934Z,2.00
2022-08-18T17:01:19.033Z,2.03
2022-08-18T17:05:30.806Z,2.28
2022-08-18T17:09:42.454Z,2.00
2022-08-18T17:13:57.237Z,1.80
2022-08-18T17:18:08.928Z,2.40
2022-08-18T17:22:20.708Z,2.10
2022-08-18T17:27:03.918Z,2.08
2022-08-18T17:31:38.481Z,1.88
2022-08-18T17:35:56.843Z,1.83
2022-08-18T17:40:16.866Z,1.90
2022-08-18T17:44:31.429Z,2.55
2022-08-18T17:48:47.921Z,2.20
2022-08-18T17:53:07.591Z,2.20
2022-08-18T17:57:32.449Z,2.78
2022-08-18T18:01:44.228Z,2.45
2022-08-18T18:06:11.631Z,2.63
2022-08-18T18:11:04.785Z,2.15
2022-08-18T18:15:31.832Z,2.97
2022-08-18T18:19:49.364Z,2.33
2022-08-18T18:24:23.671Z,2.70
2022-08-18T18:28:35.998Z,1.85
2022-08-18T18:32:48.992Z,2.13
2022-08-18T18:37:33.073Z,1.80
2022-08-18T18:41:44.874Z,2.38
2022-08-18T18:46:29.984Z,2.35
2022-08-18T18:50:55.966Z,1.95
2022-08-18T18:55:19.255Z,2.13
2022-08-18T19:04:27.838Z,2.30
2022-08-18T19:08:45.363Z,1.88
2022-08-18T19:13:02.591Z,2.05
2022-08-18T19:17:27.504Z,1.95
2022-08-18T19:22:02.456Z,1.90
2022-08-18T19:26:17.319Z,2.40
2022-08-18T19:30:30.428Z,1.90
2022-08-18T19:34:51.683Z,2.13
2022-08-18T19:39:22.046Z,2.20
2022-08-18T19:43:41.362Z,2.20
2022-08-18T19:48:18.502Z,2.40
2022-08-18T19:52:56.178Z,3.05
2022-08-18T19:57:29.552Z,2.10
2022-08-18T20:01:59.750Z,2.20
2022-08-18T20:06:34.354Z,2.10
2022-08-18T20:10:46.901Z,1.88
2022-08-18T20:15:07.521Z,2.50
2022-08-18T20:19:37.305Z,2.30
2022-08-18T20:24:13.624Z,2.38
2022-08-18T20:28:36.204Z,2.45
2022-08-18T20:33:08.845Z,2.53
2022-08-18T20:37:25.472Z,2.47
2022-08-18T20:41:47.140Z,2.42
2022-08-18T20:46:32.501Z,2.15
2022-08-18T20:51:03.142Z,2.42
2022-08-18T20:55:30.648Z,2.10
2022-08-18T20:59:53.599Z,2.40
2022-08-18T21:04:05.231Z,2.10
2022-08-18T21:08:38.039Z,2.10
2022-08-18T21:12:58.654Z,2.05
2022-08-18T21:17:15.270Z,2.05
2022-08-18T21:21:40.615Z,2.35
2022-08-18T21:25:56.992Z,2.17
2022-08-18T21:30:28.896Z,2.28
2022-08-18T21:34:45.167Z,1.92
2022-08-18T21:39:06.505Z,2.47
2022-08-18T21:43:37.124Z,2.15
2022-08-18T21:47:59.221Z,2.33
2022-08-18T21:52:10.790Z,2.58
2022-08-18T21:56:31.478Z,2.28
2022-08-18T22:01:16.876Z,2.33
2022-08-18T22:05:59.087Z,2.55
2022-08-18T22:10:41.461Z,2.30
2022-08-18T22:14:54.443Z,2.50
2022-08-18T22:19:19.040Z,2.58
2022-08-18T22:23:58.328Z,2.20
2022-08-18T22:28:10.125Z,2.28
2022-08-18T22:32:21.877Z,2.50
2022-08-18T22:36:42.775Z,2.70
2022-08-18T22:40:54.320Z,2.70
2022-08-18T22:45:13.340Z,2.45
2022-08-18T22:49:25.357Z,2.38
2022-08-18T22:53:36.949Z,2.60
2022-08-18T22:57:48.466Z,2.80
2022-08-18T23:02:00.293Z,2.50
2022-08-18T23:06:11.874Z,2.80
2022-08-18T23:10:23.438Z,2.60
2022-08-18T23:14:35.292Z,2.50
2022-08-18T23:18:46.843Z,2.90
2022-08-18T23:22:59.644Z,2.50
2022-08-18T23:27:11.277Z,2.05
2022-08-18T23:31:22.842Z,2.75
2022-08-18T23:35:34.547Z,2.40
2022-08-18T23:39:48.302Z,3.08
2022-08-18T23:44:00.153Z,2.47
2022-08-18T23:48:11.823Z,2.50
2022-08-18T23:52:23.395Z,2.75
2022-08-18T23:56:36.517Z,2.75
